Terminal Aerodrome Forecast
Issued by NWS Louisville, KY

Home | Current Version | Previous Version | Text Only | Print | Product List | Glossary On
Versions: 1 2 3 4 5 6 7 8 9 10 11 12 13 14 15 16 17 18 19 20 21
000
FTUS43 KLMK 302300
TAFLEX
TAF
KLEX 302320Z 3100/3124 22005KT P6SM VCTS BKN060CB OVC100
     FM310100 20008KT 5SM -SHRA BR VCTS OVC035CB
     FM311400 20007KT P6SM VCSH BKN040=

USA.gov is the U.S. government's official web portal to all federal, state and local government web resources and services.